Time;durP1;ratioP1;P1;durP2;ratioP2;P2;SDS_P1;SDS_P2;PMS_P1;PMS_P2;Temp;Humidity;BMP_temperature;BMP_pressure;BME280_temperature;BME280_humidity;BME280_pressure;Samples;Min_cycle;Max_cycle;Signal;HPM_P1;HPM_P2
2021/09/11 00:02:17;;;;;;;8.25;3.70;;;;;;;;;;4978763;28;20051;-83
2021/09/11 00:04:47;;;;;;;9.30;3.63;;;;;;;;;;4975362;28;20034;-87
2021/09/11 00:07:13;;;;;;;8.88;3.65;;;;;;;;;;4975678;28;20031;-87
2021/09/11 00:09:40;;;;;;;6.30;3.40;;;;;;;;;;4975263;28;20031;-87
2021/09/11 00:12:06;;;;;;;8.27;3.42;;;;;;;;;;4974999;28;20530;-86
2021/09/11 00:14:33;;;;;;;8.20;4.03;;;;;;;;;;4975154;28;20027;-87
2021/09/11 00:16:59;;;;;;;6.75;3.65;;;;;;;;;;4974949;28;20030;-84
2021/09/11 00:19:26;;;;;;;7.88;3.53;;;;;;;;;;4974882;28;20038;-85
2021/09/11 00:21:52;;;;;;;6.50;3.47;;;;;;;;;;4974783;28;20113;-84
2021/09/11 00:24:18;;;;;;;7.93;3.30;;;;;;;;;;4975017;28;20027;-86
2021/09/11 00:26:44;;;;;;;6.28;3.63;;;;;;;;;;4975301;28;20387;-84
2021/09/11 00:29:10;;;;;;;6.65;3.70;;;;;;;;;;4974971;28;20030;-87
2021/09/11 00:31:37;;;;;;;9.60;3.55;;;;;;;;;;4974851;28;20035;-84
2021/09/11 00:34:03;;;;;;;6.60;3.20;;;;;;;;;;4976614;28;20027;-85
2021/09/11 00:36:30;;;;;;;5.90;3.42;;;;;;;;;;4974715;28;20039;-84
2021/09/11 00:38:56;;;;;;;6.50;3.97;;;;;;;;;;4975870;28;20027;-87
2021/09/11 00:41:22;;;;;;;9.65;3.55;;;;;;;;;;4975813;28;20064;-87
2021/09/11 00:43:49;;;;;;;7.30;4.30;;;;;;;;;;4974365;28;20503;-85
2021/09/11 00:46:16;;;;;;;5.72;3.42;;;;;;;;;;4974808;28;20033;-86
2021/09/11 00:48:42;;;;;;;8.68;3.97;;;;;;;;;;4974484;28;20027;-86
2021/09/11 00:51:08;;;;;;;6.60;3.22;;;;;;;;;;4975824;28;20035;-87
2021/09/11 00:53:34;;;;;;;11.98;4.07;;;;;;;;;;4974637;28;20050;-88
2021/09/11 00:56:01;;;;;;;7.13;3.47;;;;;;;;;;4974641;28;20038;-87
2021/09/11 00:58:27;;;;;;;13.00;3.95;;;;;;;;;;4974565;28;20117;-86
2021/09/11 01:00:53;;;;;;;9.15;3.13;;;;;;;;;;4974557;28;20027;-87
2021/09/11 01:03:19;;;;;;;9.80;4.15;;;;;;;;;;4974543;28;20074;-85
2021/09/11 01:05:46;;;;;;;7.00;3.75;;;;;;;;;;4975612;28;20038;-86
2021/09/11 01:08:12;;;;;;;7.05;3.67;;;;;;;;;;4974148;28;20031;-87
2021/09/11 01:10:38;;;;;;;6.18;3.45;;;;;;;;;;4974215;28;20066;-86
2021/09/11 01:13:04;;;;;;;8.75;3.75;;;;;;;;;;4979622;28;20133;-85
2021/09/11 01:15:32;;;;;;;8.63;4.40;;;;;;;;;;4978643;28;20123;-87
2021/09/11 01:17:58;;;;;;;10.35;3.83;;;;;;;;;;4973961;28;20034;-87
2021/09/11 01:20:24;;;;;;;9.85;4.38;;;;;;;;;;4974008;28;20101;-87
2021/09/11 01:22:50;;;;;;;6.47;3.88;;;;;;;;;;4975927;28;20053;-88
2021/09/11 01:25:18;;;;;;;10.18;3.92;;;;;;;;;;4974062;28;20535;-88
2021/09/11 01:27:44;;;;;;;6.82;3.78;;;;;;;;;;4974092;28;20031;-84
2021/09/11 01:30:15;;;;;;;6.65;3.53;;;;;;;;;;4974063;28;20023;-87
2021/09/11 01:32:41;;;;;;;6.80;4.03;;;;;;;;;;4974032;28;20030;-86
2021/09/11 01:35:08;;;;;;;8.18;4.28;;;;;;;;;;4973669;28;20031;-87
2021/09/11 01:37:34;;;;;;;6.82;4.05;;;;;;;;;;4975115;28;20027;-87
2021/09/11 01:40:04;;;;;;;7.95;3.72;;;;;;;;;;4974013;28;20062;-87
2021/09/11 01:42:30;;;;;;;9.32;3.38;;;;;;;;;;4974874;28;20027;-85
2021/09/11 01:44:57;;;;;;;7.05;3.10;;;;;;;;;;4973701;28;20027;-86
2021/09/11 01:47:23;;;;;;;6.30;3.45;;;;;;;;;;4973853;28;20019;-87
2021/09/11 01:49:50;;;;;;;6.90;4.18;;;;;;;;;;4973846;28;20085;-87
2021/09/11 01:52:16;;;;;;;11.43;3.33;;;;;;;;;;4973813;28;20027;-86
2021/09/11 01:54:42;;;;;;;6.93;3.80;;;;;;;;;;4973737;28;20396;-87
2021/09/11 01:57:12;;;;;;;6.57;3.70;;;;;;;;;;4976675;28;20182;-86
2021/09/11 01:59:38;;;;;;;8.77;4.15;;;;;;;;;;4977718;28;20109;-86
2021/09/11 02:02:05;;;;;;;10.52;3.35;;;;;;;;;;4977443;28;20054;-83
2021/09/11 02:04:31;;;;;;;8.13;3.38;;;;;;;;;;4977554;28;20033;-87
2021/09/11 02:06:57;;;;;;;6.35;3.63;;;;;;;;;;4978735;28;20042;-85
2021/09/11 02:09:24;;;;;;;8.18;3.53;;;;;;;;;;4977673;28;20033;-88
2021/09/11 02:11:50;;;;;;;7.50;3.92;;;;;;;;;;4977383;28;20035;-86
2021/09/11 02:14:16;;;;;;;7.35;3.25;;;;;;;;;;4977446;28;20023;-84
2021/09/11 02:16:42;;;;;;;7.63;4.35;;;;;;;;;;4979160;28;20038;-86
2021/09/11 02:19:08;;;;;;;6.65;3.83;;;;;;;;;;4977417;28;20022;-86
2021/09/11 02:21:35;;;;;;;5.95;3.55;;;;;;;;;;4977372;28;20039;-82
2021/09/11 02:24:01;;;;;;;7.95;4.10;;;;;;;;;;4978622;28;20023;-86
2021/09/11 02:26:27;;;;;;;6.72;3.75;;;;;;;;;;4977542;28;20119;-85
2021/09/11 02:28:53;;;;;;;7.20;4.32;;;;;;;;;;4978546;28;20035;-85
2021/09/11 02:31:20;;;;;;;6.05;3.25;;;;;;;;;;4980494;28;20029;-88
2021/09/11 02:33:49;;;;;;;6.88;3.67;;;;;;;;;;4981106;28;20041;-87
2021/09/11 02:36:16;;;;;;;6.20;3.78;;;;;;;;;;4976763;28;20059;-87
2021/09/11 02:38:42;;;;;;;5.90;3.25;;;;;;;;;;4977151;28;20026;-87
2021/09/11 02:41:09;;;;;;;10.13;3.92;;;;;;;;;;4976999;28;20082;-88
2021/09/11 02:43:35;;;;;;;6.97;3.80;;;;;;;;;;4978179;28;20038;-85
2021/09/11 02:46:01;;;;;;;9.07;3.70;;;;;;;;;;4976568;28;20034;-86
2021/09/11 02:48:28;;;;;;;7.50;3.47;;;;;;;;;;4976559;28;20369;-84
2021/09/11 02:50:54;;;;;;;7.68;3.63;;;;;;;;;;4977943;28;20031;-84
2021/09/11 02:53:20;;;;;;;9.63;4.00;;;;;;;;;;4976766;28;20062;-88
2021/09/11 02:55:46;;;;;;;10.27;4.00;;;;;;;;;;4976725;28;20495;-83
2021/09/11 02:58:12;;;;;;;6.78;3.40;;;;;;;;;;4976768;28;20424;-86
2021/09/11 03:00:39;;;;;;;6.80;3.83;;;;;;;;;;4976763;28;20037;-88
2021/09/11 03:03:05;;;;;;;6.00;3.25;;;;;;;;;;4976527;28;20055;-87
2021/09/11 03:05:31;;;;;;;6.90;3.70;;;;;;;;;;4976557;28;20019;-85
2021/09/11 03:07:58;;;;;;;7.35;3.90;;;;;;;;;;4975390;28;20031;-88
2021/09/11 03:10:24;;;;;;;7.45;3.78;;;;;;;;;;4978233;28;20022;-86
2021/09/11 03:12:50;;;;;;;7.75;3.50;;;;;;;;;;4977515;28;20114;-87
2021/09/11 03:15:17;;;;;;;5.15;3.60;;;;;;;;;;4976233;28;20130;-84
2021/09/11 03:17:43;;;;;;;11.13;3.78;;;;;;;;;;4976859;28;20472;-87
2021/09/11 03:20:10;;;;;;;6.70;3.75;;;;;;;;;;4976207;28;20026;-83
2021/09/11 03:22:36;;;;;;;5.30;3.33;;;;;;;;;;4977452;28;20464;-87
2021/09/11 03:25:03;;;;;;;7.65;4.00;;;;;;;;;;4976072;28;20081;-83
2021/09/11 03:27:29;;;;;;;5.30;3.58;;;;;;;;;;4976325;28;20027;-87
2021/09/11 03:29:55;;;;;;;6.57;3.47;;;;;;;;;;4976600;28;20500;-86
2021/09/11 03:32:22;;;;;;;6.43;3.50;;;;;;;;;;4976270;28;20123;-88
2021/09/11 03:34:48;;;;;;;6.72;3.65;;;;;;;;;;4975978;28;20023;-87
2021/09/11 03:37:14;;;;;;;7.45;4.03;;;;;;;;;;4975888;28;20070;-88
2021/09/11 03:39:40;;;;;;;6.72;3.65;;;;;;;;;;4976033;28;20026;-87
2021/09/11 03:42:06;;;;;;;6.65;3.60;;;;;;;;;;4976999;28;20353;-86
2021/09/11 03:44:33;;;;;;;7.35;3.47;;;;;;;;;;4975803;28;20118;-85
2021/09/11 03:46:59;;;;;;;6.38;3.28;;;;;;;;;;4976182;28;20460;-85
2021/09/11 03:49:25;;;;;;;7.25;3.92;;;;;;;;;;4975615;28;20062;-88
2021/09/11 03:51:51;;;;;;;6.68;3.80;;;;;;;;;;4975819;28;20027;-87
2021/09/11 03:54:17;;;;;;;6.30;3.40;;;;;;;;;;4976435;28;20026;-88
2021/09/11 03:56:43;;;;;;;6.18;3.45;;;;;;;;;;4976455;28;20034;-88
2021/09/11 03:59:10;;;;;;;8.88;3.88;;;;;;;;;;4975413;28;20045;-84
2021/09/11 04:01:36;;;;;;;11.20;5.05;;;;;;;;;;4975229;28;20027;-87
2021/09/11 04:04:02;;;;;;;11.60;3.92;;;;;;;;;;4975322;28;20035;-85
2021/09/11 04:06:28;;;;;;;7.63;4.10;;;;;;;;;;4975581;28;20388;-86
2021/09/11 04:08:54;;;;;;;5.53;3.40;;;;;;;;;;4975076;28;20549;-87
2021/09/11 04:11:20;;;;;;;9.98;4.25;;;;;;;;;;4975617;28;20069;-86
2021/09/11 04:13:46;;;;;;;6.28;4.03;;;;;;;;;;4975212;28;20026;-87
2021/09/11 04:16:13;;;;;;;9.07;4.40;;;;;;;;;;4975394;28;20484;-83
2021/09/11 04:18:39;;;;;;;6.65;3.85;;;;;;;;;;4977360;28;20353;-86
2021/09/11 04:21:05;;;;;;;7.55;3.75;;;;;;;;;;4976524;28;20045;-87
2021/09/11 04:23:31;;;;;;;9.32;3.95;;;;;;;;;;4975749;28;20026;-88
2021/09/11 04:25:58;;;;;;;7.13;3.70;;;;;;;;;;4975400;28;20396;-87
2021/09/11 04:28:24;;;;;;;7.63;4.55;;;;;;;;;;4975162;28;20023;-86
2021/09/11 04:30:52;;;;;;;5.93;3.55;;;;;;;;;;4976112;28;20023;-84
2021/09/11 04:33:19;;;;;;;7.15;3.78;;;;;;;;;;4975036;28;20061;-85
2021/09/11 04:35:45;;;;;;;12.00;4.75;;;;;;;;;;4974734;28;20043;-84
2021/09/11 04:38:11;;;;;;;7.57;4.22;;;;;;;;;;4975811;28;20073;-84
2021/09/11 04:40:37;;;;;;;6.65;3.83;;;;;;;;;;4974545;28;20066;-81
2021/09/11 04:43:07;;;;;;;10.75;4.55;;;;;;;;;;4974440;28;20027;-84
2021/09/11 04:45:33;;;;;;;8.10;3.85;;;;;;;;;;4974256;28;20085;-83
2021/09/11 04:47:59;;;;;;;11.30;4.22;;;;;;;;;;4974384;28;20026;-83
2021/09/11 04:50:25;;;;;;;7.93;4.35;;;;;;;;;;4974347;28;20046;-84
2021/09/11 04:52:51;;;;;;;6.00;3.35;;;;;;;;;;4974607;28;20023;-87
2021/09/11 04:55:19;;;;;;;9.52;3.72;;;;;;;;;;4973969;28;20037;-86
2021/09/11 04:57:46;;;;;;;7.55;3.70;;;;;;;;;;4974419;28;20505;-87
2021/09/11 05:00:13;;;;;;;8.20;4.25;;;;;;;;;;4973986;28;20058;-86
2021/09/11 05:02:39;;;;;;;11.18;4.28;;;;;;;;;;4975451;28;20496;-87
2021/09/11 05:05:05;;;;;;;6.20;3.92;;;;;;;;;;4974120;28;20089;-84
2021/09/11 05:07:31;;;;;;;12.00;4.47;;;;;;;;;;4975545;28;20106;-86
2021/09/11 05:09:58;;;;;;;9.70;4.47;;;;;;;;;;4973681;28;20034;-84
2021/09/11 05:12:24;;;;;;;9.77;4.07;;;;;;;;;;4975150;28;20026;-85
2021/09/11 05:14:53;;;;;;;5.95;3.85;;;;;;;;;;4973756;28;20428;-85
2021/09/11 05:17:19;;;;;;;9.57;4.53;;;;;;;;;;4973845;28;20061;-87
2021/09/11 05:19:45;;;;;;;7.80;4.22;;;;;;;;;;4973796;28;20033;-86
2021/09/11 05:22:11;;;;;;;8.75;5.05;;;;;;;;;;4974179;28;20030;-87
2021/09/11 05:24:37;;;;;;;8.75;5.28;;;;;;;;;;4973717;28;20476;-85
2021/09/11 05:27:03;;;;;;;9.50;4.88;;;;;;;;;;4973795;28;20392;-84
2021/09/11 05:29:30;;;;;;;9.70;6.45;;;;;;;;;;4973846;28;20395;-82
2021/09/11 05:31:56;;;;;;;8.75;5.45;;;;;;;;;;4974197;28;20106;-86
2021/09/11 05:34:23;;;;;;;10.75;4.60;;;;;;;;;;4975341;28;20034;-86
2021/09/11 05:36:50;;;;;;;8.30;5.22;;;;;;;;;;4974005;28;20042;-85
2021/09/11 05:39:17;;;;;;;7.45;4.20;;;;;;;;;;4973769;28;20065;-81
2021/09/11 05:41:43;;;;;;;8.85;5.60;;;;;;;;;;4975337;28;20070;-85
2021/09/11 05:44:09;;;;;;;12.27;5.25;;;;;;;;;;4973675;28;20038;-86
2021/09/11 05:46:35;;;;;;;12.10;5.53;;;;;;;;;;4975111;28;20057;-86
2021/09/11 05:49:01;;;;;;;11.48;6.15;;;;;;;;;;4973451;28;20543;-85
2021/09/11 05:51:28;;;;;;;14.43;5.15;;;;;;;;;;4974150;28;20039;-83
2021/09/11 05:53:54;;;;;;;11.82;6.00;;;;;;;;;;4973348;28;20046;-85
2021/09/11 05:56:20;;;;;;;10.65;4.75;;;;;;;;;;4974761;28;20063;-82
2021/09/11 05:58:46;;;;;;;15.57;5.18;;;;;;;;;;4973497;28;20038;-84
2021/09/11 06:01:15;;;;;;;11.43;3.75;;;;;;;;;;4974593;28;20023;-87
2021/09/11 06:03:41;;;;;;;7.25;2.92;;;;;;;;;;4974425;28;20051;-88
2021/09/11 06:06:08;;;;;;;5.13;2.08;;;;;;;;;;4973224;28;20041;-85
2021/09/11 06:08:34;;;;;;;3.53;1.98;;;;;;;;;;4973172;28;20447;-87
2021/09/11 06:11:00;;;;;;;6.53;2.47;;;;;;;;;;4975119;28;20086;-86
2021/09/11 06:13:26;;;;;;;3.88;1.92;;;;;;;;;;4973138;28;20027;-86
2021/09/11 06:15:52;;;;;;;5.97;2.42;;;;;;;;;;4974392;28;20027;-87
2021/09/11 06:18:18;;;;;;;6.57;2.72;;;;;;;;;;4973073;28;20023;-86
2021/09/11 06:20:44;;;;;;;12.27;2.80;;;;;;;;;;4975013;28;20365;-87
2021/09/11 06:23:11;;;;;;;6.05;3.08;;;;;;;;;;4973136;28;20090;-88
2021/09/11 06:25:37;;;;;;;11.65;2.65;;;;;;;;;;4972958;28;20121;-87
2021/09/11 06:28:03;;;;;;;9.32;2.45;;;;;;;;;;4972991;28;20424;-88
2021/09/11 06:30:29;;;;;;;10.50;2.78;;;;;;;;;;4972838;28;20037;-85
2021/09/11 06:32:55;;;;;;;7.53;2.85;;;;;;;;;;4972981;28;20035;-87
2021/09/11 06:35:22;;;;;;;5.90;2.33;;;;;;;;;;4972701;28;20030;-86
2021/09/11 06:37:48;;;;;;;4.05;2.00;;;;;;;;;;4973046;28;20463;-87
2021/09/11 06:40:14;;;;;;;10.68;2.60;;;;;;;;;;4972866;28;20162;-88
2021/09/11 06:42:40;;;;;;;8.57;2.75;;;;;;;;;;4975952;28;20420;-84
2021/09/11 06:45:07;;;;;;;4.55;2.65;;;;;;;;;;4978115;28;20456;-84
2021/09/11 06:47:33;;;;;;;5.03;2.63;;;;;;;;;;4976224;28;20025;-84
2021/09/11 06:49:59;;;;;;;7.65;3.25;;;;;;;;;;4976196;28;20026;-83
2021/09/11 06:52:25;;;;;;;6.35;2.90;;;;;;;;;;4976201;28;20041;-85
2021/09/11 06:54:52;;;;;;;7.57;2.40;;;;;;;;;;4976195;28;20022;-83
2021/09/11 06:57:18;;;;;;;4.35;2.33;;;;;;;;;;4977470;28;20061;-86
2021/09/11 06:59:44;;;;;;;7.30;2.90;;;;;;;;;;4976011;28;20054;-89
2021/09/11 07:02:10;;;;;;;4.78;2.30;;;;;;;;;;4975824;28;20059;-82
2021/09/11 07:04:40;;;;;;;4.97;2.85;;;;;;;;;;4975946;28;20027;-84
2021/09/11 07:07:08;;;;;;;6.53;2.67;;;;;;;;;;4975945;28;20118;-84
2021/09/11 07:09:34;;;;;;;7.90;2.47;;;;;;;;;;4975902;28;20061;-84
2021/09/11 07:12:01;;;;;;;3.22;1.77;;;;;;;;;;4975746;28;20034;-86
2021/09/11 07:14:27;;;;;;;5.95;1.92;;;;;;;;;;4977172;28;20023;-86
2021/09/11 07:16:54;;;;;;;3.40;1.80;;;;;;;;;;4977376;28;20070;-84
2021/09/11 07:19:20;;;;;;;6.35;1.90;;;;;;;;;;4977023;28;20027;-83
2021/09/11 07:21:46;;;;;;;3.33;2.00;;;;;;;;;;4975610;28;20027;-83
2021/09/11 07:24:13;;;;;;;3.45;1.75;;;;;;;;;;4975531;28;20027;-86
2021/09/11 07:26:39;;;;;;;4.00;1.88;;;;;;;;;;4977323;28;20027;-86
2021/09/11 07:29:06;;;;;;;5.68;2.05;;;;;;;;;;4975446;28;20038;-84
2021/09/11 07:31:32;;;;;;;4.60;1.98;;;;;;;;;;4977254;28;20027;-87
2021/09/11 07:33:59;;;;;;;3.03;1.98;;;;;;;;;;4975523;28;20114;-84
2021/09/11 07:36:25;;;;;;;3.05;1.70;;;;;;;;;;4975359;28;20047;-82
2021/09/11 07:38:51;;;;;;;4.45;1.58;;;;;;;;;;4975455;28;20471;-86
2021/09/11 07:41:18;;;;;;;4.95;1.88;;;;;;;;;;4977261;28;20106;-86
2021/09/11 07:43:44;;;;;;;4.97;1.88;;;;;;;;;;4975317;28;20109;-85
2021/09/11 07:46:11;;;;;;;4.55;2.10;;;;;;;;;;4976486;28;20023;-81
2021/09/11 07:48:37;;;;;;;6.60;1.88;;;;;;;;;;4977138;28;20058;-84
2021/09/11 07:51:04;;;;;;;5.70;2.15;;;;;;;;;;4975015;28;20126;-86
2021/09/11 07:53:30;;;;;;;3.20;1.85;;;;;;;;;;4975548;28;20436;-81
2021/09/11 07:55:59;;;;;;;4.90;1.80;;;;;;;;;;4976441;28;20042;-81
2021/09/11 07:58:26;;;;;;;3.35;2.03;;;;;;;;;;4976297;28;20027;-83
2021/09/11 08:00:55;;;;;;;4.25;1.83;;;;;;;;;;4976296;28;20023;-87
2021/09/11 08:03:22;;;;;;;3.88;2.10;;;;;;;;;;4974726;28;20054;-86
2021/09/11 08:05:49;;;;;;;4.72;1.70;;;;;;;;;;4976643;28;20027;-83
2021/09/11 08:08:15;;;;;;;4.90;1.90;;;;;;;;;;4978743;28;20046;-83
2021/09/11 08:10:41;;;;;;;4.63;1.95;;;;;;;;;;4974602;28;20073;-83
2021/09/11 08:13:07;;;;;;;5.05;1.60;;;;;;;;;;4975681;28;20038;-83
2021/09/11 08:15:33;;;;;;;4.03;2.13;;;;;;;;;;4976208;28;20026;-83
2021/09/11 08:18:01;;;;;;;4.55;2.10;;;;;;;;;;4976024;28;20058;-82
2021/09/11 08:20:34;;;;;;;4.28;1.80;;;;;;;;;;4974459;28;20093;-83
2021/09/11 08:23:04;;;;;;;4.68;2.03;;;;;;;;;;4974339;28;20478;-82
2021/09/11 08:25:30;;;;;;;3.50;2.00;;;;;;;;;;4975575;28;20031;-82
2021/09/11 08:27:58;;;;;;;4.07;1.70;;;;;;;;;;4975670;28;20469;-83
2021/09/11 08:30:24;;;;;;;4.88;1.85;;;;;;;;;;4974203;28;20027;-83
2021/09/11 08:32:50;;;;;;;5.68;1.90;;;;;;;;;;4974462;28;20035;-82
2021/09/11 08:35:16;;;;;;;4.25;1.70;;;;;;;;;;4975561;28;20395;-84
2021/09/11 08:37:43;;;;;;;5.45;1.85;;;;;;;;;;4975369;28;20515;-83
2021/09/11 08:40:13;;;;;;;3.25;1.90;;;;;;;;;;4975371;28;20468;-83
2021/09/11 08:42:41;;;;;;;3.55;1.88;;;;;;;;;;4975340;28;20045;-82
2021/09/11 08:45:07;;;;;;;5.20;2.08;;;;;;;;;;4974016;28;20034;-83
2021/09/11 08:47:33;;;;;;;9.10;3.50;;;;;;;;;;4974135;28;20026;-83
2021/09/11 08:49:59;;;;;;;5.32;1.95;;;;;;;;;;4974028;28;20023;-84
2021/09/11 08:52:25;;;;;;;10.40;2.05;;;;;;;;;;4973944;28;20170;-83
2021/09/11 08:54:53;;;;;;;3.70;1.92;;;;;;;;;;4973903;28;20019;-84
2021/09/11 08:57:22;;;;;;;7.97;2.00;;;;;;;;;;4973879;28;20046;-83
2021/09/11 08:59:48;;;;;;;3.92;1.42;;;;;;;;;;4975157;28;20090;-83
2021/09/11 09:02:14;;;;;;;3.63;1.65;;;;;;;;;;4973651;28;20101;-83
2021/09/11 09:04:44;;;;;;;5.25;2.00;;;;;;;;;;4973675;28;20081;-83
2021/09/11 09:07:10;;;;;;;5.55;1.70;;;;;;;;;;4973681;28;20026;-82
2021/09/11 09:09:41;;;;;;;3.45;1.83;;;;;;;;;;4973887;28;20503;-83
2021/09/11 09:12:14;;;;;;;3.58;1.92;;;;;;;;;;4973789;28;20027;-83
2021/09/11 09:14:58;;;;;;;3.88;2.08;;;;;;;;;;4974957;28;20373;-83
2021/09/11 09:17:36;;;;;;;6.55;1.98;;;;;;;;;;4973563;28;20511;-83
2021/09/11 09:20:35;;;;;;;5.15;1.63;;;;;;;;;;4973602;28;20050;-86
2021/09/11 09:23:01;;;;;;;12.93;1.90;;;;;;;;;;4962583;28;20117;-83
2021/09/11 09:25:29;;;;;;;6.53;2.20;;;;;;;;;;4973570;28;20027;-84
2021/09/11 09:27:57;;;;;;;3.60;2.03;;;;;;;;;;4973513;28;20038;-85
2021/09/11 09:30:34;;;;;;;7.72;2.38;;;;;;;;;;4973469;28;20033;-85
2021/09/11 09:33:00;;;;;;;10.55;1.90;;;;;;;;;;4973348;28;20078;-84
2021/09/11 09:35:26;;;;;;;4.10;1.92;;;;;;;;;;4974532;28;20023;-84
2021/09/11 09:37:55;;;;;;;4.07;2.22;;;;;;;;;;4973412;28;20027;-85
2021/09/11 09:40:40;;;;;;;5.55;3.15;;;;;;;;;;4974597;28;20030;-85
2021/09/11 09:43:07;;;;;;;4.45;2.40;;;;;;;;;;4973319;28;20031;-85
2021/09/11 09:45:34;;;;;;;3.00;1.48;;;;;;;;;;4973496;28;20037;-86
2021/09/11 09:48:05;;;;;;;7.63;2.05;;;;;;;;;;4973335;28;20383;-85
2021/09/11 09:50:33;;;;;;;3.35;1.77;;;;;;;;;;4973423;28;20085;-84
2021/09/11 09:52:59;;;;;;;4.15;1.65;;;;;;;;;;4973142;28;20034;-85
2021/09/11 09:55:26;;;;;;;5.65;1.90;;;;;;;;;;4973135;28;20395;-85
2021/09/11 09:57:52;;;;;;;5.45;2.95;;;;;;;;;;4974526;28;20038;-85
2021/09/11 10:00:18;;;;;;;4.03;1.92;;;;;;;;;;4973355;28;20026;-85
2021/09/11 10:02:44;;;;;;;4.15;1.73;;;;;;;;;;4972813;28;20082;-85
2021/09/11 10:05:14;;;;;;;7.35;1.95;;;;;;;;;;4973238;28;20030;-85
2021/09/11 10:07:46;;;;;;;2.58;1.48;;;;;;;;;;4973118;28;20027;-84
2021/09/11 10:10:12;;;;;;;4.53;1.92;;;;;;;;;;4973165;28;20396;-84
2021/09/11 10:12:41;;;;;;;6.15;1.98;;;;;;;;;;4973031;28;20128;-86
2021/09/11 10:15:35;;;;;;;4.10;2.20;;;;;;;;;;4974533;28;20105;-82
2021/09/11 10:18:02;;;;;;;7.03;1.92;;;;;;;;;;4974674;28;20538;-85
2021/09/11 10:20:28;;;;;;;4.68;1.70;;;;;;;;;;4978704;28;20106;-84
2021/09/11 10:23:07;;;;;;;3.33;1.80;;;;;;;;;;4976721;28;20114;-85
2021/09/11 10:25:52;;;;;;;10.38;1.83;;;;;;;;;;4976610;28;20035;-83
2021/09/11 10:28:21;;;;;;;5.40;1.90;;;;;;;;;;4976501;28;20027;-86
2021/09/11 10:31:06;;;;;;;3.92;1.60;;;;;;;;;;4976781;28;20030;-88
2021/09/11 10:33:50;;;;;;;5.00;1.50;;;;;;;;;;4976649;28;20067;-86
2021/09/11 10:36:43;;;;;;;6.68;1.80;;;;;;;;;;4976423;28;20031;-88
2021/09/11 10:39:09;;;;;;;3.75;1.60;;;;;;;;;;4976290;28;20472;-87
2021/09/11 10:41:36;;;;;;;9.60;1.70;;;;;;;;;;4976510;28;20037;-84
2021/09/11 10:44:06;;;;;;;2.55;1.40;;;;;;;;;;4977879;28;20035;-83
2021/09/11 10:46:51;;;;;;;7.18;1.80;;;;;;;;;;4976305;28;20027;-84
2021/09/11 10:49:26;;;;;;;3.10;1.50;;;;;;;;;;4976295;28;20038;-85
2021/09/11 10:52:02;;;;;;;4.65;1.63;;;;;;;;;;4976186;28;20053;-84
2021/09/11 10:54:38;;;;;;;4.25;1.50;;;;;;;;;;4977354;28;20023;-86
2021/09/11 10:57:06;;;;;;;5.80;1.48;;;;;;;;;;4976263;28;20050;-81
2021/09/11 10:59:35;;;;;;;2.45;1.42;;;;;;;;;;4977495;28;20118;-84
2021/09/11 11:02:10;;;;;;;3.53;1.60;;;;;;;;;;4975937;28;20489;-87
2021/09/11 11:04:49;;;;;;;3.70;1.42;;;;;;;;;;4976026;28;20030;-85
2021/09/11 11:07:35;;;;;;;7.53;1.73;;;;;;;;;;4975939;28;20031;-82
2021/09/11 11:10:04;;;;;;;2.75;1.40;;;;;;;;;;4975836;28;20380;-82
2021/09/11 11:12:32;;;;;;;3.88;1.67;;;;;;;;;;4977218;28;20034;-83
2021/09/11 11:15:00;;;;;;;4.93;1.60;;;;;;;;;;4977780;28;20018;-83
2021/09/11 11:17:27;;;;;;;7.53;1.80;;;;;;;;;;4977148;28;20458;-83
2021/09/11 11:19:54;;;;;;;3.10;1.70;;;;;;;;;;4975856;28;20027;-82
2021/09/11 11:22:33;;;;;;;3.42;1.42;;;;;;;;;;4977155;28;20077;-85
2021/09/11 11:24:59;;;;;;;4.00;1.63;;;;;;;;;;4975802;28;20045;-87
2021/09/11 11:27:26;;;;;;;3.80;1.67;;;;;;;;;;4975652;28;20022;-87
2021/09/11 11:29:54;;;;;;;3.63;1.75;;;;;;;;;;4975738;28;20050;-85
2021/09/11 11:32:21;;;;;;;6.63;2.08;;;;;;;;;;4976939;28;20429;-85
2021/09/11 11:34:52;;;;;;;4.45;1.50;;;;;;;;;;4975970;28;20031;-88
2021/09/11 11:37:18;;;;;;;8.07;1.75;;;;;;;;;;4975151;28;20122;-83
2021/09/11 11:39:44;;;;;;;4.30;1.67;;;;;;;;;;4974892;28;20038;-84
2021/09/11 11:42:13;;;;;;;4.30;1.60;;;;;;;;;;4975281;28;20030;-86
2021/09/11 11:44:44;;;;;;;4.68;2.00;;;;;;;;;;4975557;28;20031;-81
2021/09/11 11:47:10;;;;;;;3.75;1.70;;;;;;;;;;4975492;28;20031;-82
2021/09/11 11:49:40;;;;;;;3.22;1.60;;;;;;;;;;4975386;28;20062;-87
2021/09/11 11:52:07;;;;;;;3.30;1.75;;;;;;;;;;4976631;28;20023;-82
2021/09/11 11:54:34;;;;;;;3.15;1.80;;;;;;;;;;4976421;28;20547;-85
2021/09/11 11:57:08;;;;;;;5.45;2.42;;;;;;;;;;4975153;28;20038;-84
2021/09/11 11:59:34;;;;;;;3.92;2.03;;;;;;;;;;4975181;28;20494;-84
2021/09/11 12:02:00;;;;;;;3.22;1.73;;;;;;;;;;4975109;28;20053;-83
2021/09/11 12:04:27;;;;;;;5.60;1.90;;;;;;;;;;4976978;28;20038;-82
2021/09/11 12:06:53;;;;;;;3.35;1.65;;;;;;;;;;4974904;28;20372;-85
2021/09/11 12:09:19;;;;;;;11.45;1.95;;;;;;;;;;4974483;28;20443;-82
2021/09/11 12:11:46;;;;;;;6.28;2.08;;;;;;;;;;4974712;28;20034;-83
2021/09/11 12:14:14;;;;;;;3.80;1.92;;;;;;;;;;4976021;28;20460;-86
2021/09/11 12:16:42;;;;;;;5.72;2.17;;;;;;;;;;4974375;28;20035;-85
2021/09/11 12:19:19;;;;;;;5.80;2.10;;;;;;;;;;4974658;28;20019;-84
2021/09/11 12:21:45;;;;;;;5.43;2.53;;;;;;;;;;4974611;28;20034;-86
2021/09/11 12:24:22;;;;;;;3.88;2.00;;;;;;;;;;4975129;28;20019;-79
2021/09/11 12:26:48;;;;;;;8.70;2.10;;;;;;;;;;4975289;28;20058;-84
2021/09/11 12:29:16;;;;;;;5.68;1.98;;;;;;;;;;4975655;28;20033;-84
2021/09/11 12:31:53;;;;;;;22.00;2.22;;;;;;;;;;4974809;28;20069;-85
2021/09/11 12:34:19;;;;;;;5.78;1.88;;;;;;;;;;4976368;28;20019;-86
2021/09/11 12:37:00;;;;;;;4.18;1.80;;;;;;;;;;4974209;28;20043;-86
2021/09/11 12:39:28;;;;;;;4.95;1.75;;;;;;;;;;4974062;28;20026;-86
2021/09/11 12:41:55;;;;;;;4.07;2.17;;;;;;;;;;4974641;28;20034;-83
2021/09/11 12:44:22;;;;;;;6.25;2.10;;;;;;;;;;4974225;28;20023;-84
2021/09/11 12:46:51;;;;;;;7.93;2.60;;;;;;;;;;4974206;28;20121;-86
2021/09/11 12:49:18;;;;;;;7.95;2.25;;;;;;;;;;4974065;28;20026;-82
2021/09/11 12:51:46;;;;;;;11.02;7.07;;;;;;;;;;4975668;28;20034;-84
2021/09/11 12:54:12;;;;;;;4.50;2.13;;;;;;;;;;4974090;28;20023;-85
2021/09/11 12:56:38;;;;;;;7.93;1.98;;;;;;;;;;4973952;28;20451;-83
2021/09/11 12:59:06;;;;;;;5.38;1.77;;;;;;;;;;4975630;28;20023;-85
2021/09/11 13:01:38;;;;;;;2.65;1.40;;;;;;;;;;4973931;28;20030;-84
2021/09/11 13:04:09;;;;;;;3.70;1.50;;;;;;;;;;4975925;28;20433;-86
2021/09/11 13:06:36;;;;;;;4.38;1.90;;;;;;;;;;4973159;28;20069;-86
2021/09/11 13:09:03;;;;;;;3.22;1.77;;;;;;;;;;4973875;28;20027;-86
2021/09/11 13:11:29;;;;;;;6.30;2.42;;;;;;;;;;4973881;28;20113;-86
2021/09/11 13:13:55;;;;;;;6.97;2.03;;;;;;;;;;4974096;28;20152;-87
2021/09/11 13:16:21;;;;;;;5.38;1.50;;;;;;;;;;4973826;28;20038;-87
2021/09/11 13:18:48;;;;;;;4.63;1.88;;;;;;;;;;4975166;28;20023;-88
2021/09/11 13:21:15;;;;;;;6.70;1.90;;;;;;;;;;4973812;28;20030;-87
2021/09/11 13:23:46;;;;;;;3.30;1.50;;;;;;;;;;4973849;28;20023;-86
2021/09/11 13:26:14;;;;;;;2.95;1.50;;;;;;;;;;4973714;28;20488;-86
2021/09/11 13:28:41;;;;;;;12.25;1.80;;;;;;;;;;4973552;28;20026;-85
2021/09/11 13:31:08;;;;;;;4.50;1.98;;;;;;;;;;4973694;28;20022;-85
2021/09/11 13:33:34;;;;;;;5.07;1.80;;;;;;;;;;4973562;28;20030;-86
2021/09/11 13:36:00;;;;;;;3.33;1.60;;;;;;;;;;4973778;28;20051;-88
2021/09/11 13:38:27;;;;;;;2.95;1.77;;;;;;;;;;4974844;28;20035;-84
2021/09/11 13:40:53;;;;;;;2.92;1.52;;;;;;;;;;4975603;28;20099;-86
2021/09/11 13:43:19;;;;;;;3.95;2.13;;;;;;;;;;4973340;28;20030;-86
2021/09/11 13:45:45;;;;;;;10.07;2.50;;;;;;;;;;4973275;28;20507;-83
2021/09/11 13:48:11;;;;;;;3.85;1.52;;;;;;;;;;4957347;28;20086;-85
2021/09/11 13:50:38;;;;;;;6.10;1.83;;;;;;;;;;4975151;28;20026;-84
2021/09/11 13:53:04;;;;;;;3.25;1.67;;;;;;;;;;4975986;28;20031;-84
2021/09/11 13:55:30;;;;;;;5.95;1.85;;;;;;;;;;4977479;28;20116;-82
2021/09/11 13:58:00;;;;;;;3.17;1.75;;;;;;;;;;4978508;28;20042;-84
2021/09/11 14:00:26;;;;;;;5.32;1.70;;;;;;;;;;4978521;28;20034;-84
2021/09/11 14:02:52;;;;;;;7.72;1.70;;;;;;;;;;4976839;28;20172;-86
2021/09/11 14:05:19;;;;;;;4.60;1.63;;;;;;;;;;4977125;28;20526;-86
2021/09/11 14:07:45;;;;;;;3.78;1.70;;;;;;;;;;4978319;28;20038;-88
2021/09/11 14:10:11;;;;;;;5.32;1.75;;;;;;;;;;4977150;28;20034;-87
2021/09/11 14:12:38;;;;;;;4.28;1.80;;;;;;;;;;4977090;28;20037;-81
2021/09/11 14:15:05;;;;;;;4.72;1.80;;;;;;;;;;4976972;28;20035;-86
2021/09/11 14:17:32;;;;;;;3.22;1.75;;;;;;;;;;4978785;28;20383;-89
2021/09/11 14:19:58;;;;;;;3.72;1.58;;;;;;;;;;4979184;28;20027;-85
2021/09/11 14:22:24;;;;;;;7.03;2.03;;;;;;;;;;4977053;28;20023;-84
2021/09/11 14:24:50;;;;;;;2.50;1.42;;;;;;;;;;4976936;28;20031;-86
2021/09/11 14:27:16;;;;;;;11.80;2.10;;;;;;;;;;4977468;28;20100;-85
2021/09/11 14:29:42;;;;;;;5.30;1.95;;;;;;;;;;4976800;28;20027;-87
2021/09/11 14:32:08;;;;;;;3.88;2.08;;;;;;;;;;4977836;28;20459;-87
2021/09/11 14:34:38;;;;;;;6.55;2.00;;;;;;;;;;4977317;28;20054;-88
2021/09/11 14:37:05;;;;;;;5.40;1.60;;;;;;;;;;4978644;28;20042;-84
2021/09/11 14:39:31;;;;;;;3.00;1.75;;;;;;;;;;4979099;28;20029;-89
2021/09/11 14:41:58;;;;;;;5.53;1.80;;;;;;;;;;4977205;28;20023;-85
2021/09/11 14:44:25;;;;;;;3.45;1.80;;;;;;;;;;4976836;28;20373;-86